sensor_id;sensor_type;location;lat;lon;timestamp;pressure;altitude;pressure_sealevel;temperature;humidity
64644;BME280;51056;50.330;7.914;2024-01-10T00:02:28;101934.94;;;-4.10;52.94
64644;BME280;51056;50.330;7.914;2024-01-10T00:05:31;101927.75;;;-4.22;53.84
64644;BME280;51056;50.330;7.914;2024-01-10T00:08:34;101927.03;;;-4.45;54.72
64644;BME280;51056;50.330;7.914;2024-01-10T00:11:38;101925.41;;;-4.42;54.40
64644;BME280;51056;50.330;7.914;2024-01-10T00:14:41;101924.06;;;-4.31;54.22
64644;BME280;51056;50.330;7.914;2024-01-10T00:17:45;101927.56;;;-4.55;54.45
64644;BME280;51056;50.330;7.914;2024-01-10T00:20:48;101920.13;;;-4.49;55.21
64644;BME280;51056;50.330;7.914;2024-01-10T00:23:51;101916.53;;;-4.54;55.21
64644;BME280;51056;50.330;7.914;2024-01-10T00:26:55;101916.53;;;-4.54;55.43
64644;BME280;51056;50.330;7.914;2024-01-10T00:29:58;101912.91;;;-4.62;56.10
64644;BME280;51056;50.330;7.914;2024-01-10T00:33:01;101913.28;;;-4.50;55.85
64644;BME280;51056;50.330;7.914;2024-01-10T00:36:05;101920.78;;;-4.54;55.58
64644;BME280;51056;50.330;7.914;2024-01-10T00:39:09;101910.53;;;-4.56;55.42
64644;BME280;51056;50.330;7.914;2024-01-10T00:42:15;101907.16;;;-4.55;55.67
64644;BME280;51056;50.330;7.914;2024-01-10T00:45:18;101902.78;;;-4.59;55.20
64644;BME280;51056;50.330;7.914;2024-01-10T00:48:22;101901.13;;;-4.57;55.76
64644;BME280;51056;50.330;7.914;2024-01-10T00:51:25;101891.84;;;-4.55;55.07
64644;BME280;51056;50.330;7.914;2024-01-10T00:54:28;101889.31;;;-4.53;55.46
64644;BME280;51056;50.330;7.914;2024-01-10T00:57:31;101893.25;;;-4.64;55.76
64644;BME280;51056;50.330;7.914;2024-01-10T01:00:35;101897.69;;;-4.59;56.53
64644;BME280;51056;50.330;7.914;2024-01-10T01:03:38;101890.16;;;-4.54;56.39
64644;BME280;51056;50.330;7.914;2024-01-10T01:06:41;101889.19;;;-4.58;56.31
64644;BME280;51056;50.330;7.914;2024-01-10T01:09:45;101893.81;;;-4.46;56.25
64644;BME280;51056;50.330;7.914;2024-01-10T01:12:48;101892.84;;;-4.77;57.16
64644;BME280;51056;50.330;7.914;2024-01-10T01:15:51;101890.53;;;-4.69;57.57
64644;BME280;51056;50.330;7.914;2024-01-10T01:18:54;101894.53;;;-4.77;57.82
64644;BME280;51056;50.330;7.914;2024-01-10T01:21:57;101892.81;;;-4.78;57.65
64644;BME280;51056;50.330;7.914;2024-01-10T01:25:01;101893.91;;;-4.70;58.04
64644;BME280;51056;50.330;7.914;2024-01-10T01:28:05;101895.66;;;-4.95;57.70
64644;BME280;51056;50.330;7.914;2024-01-10T01:31:08;101895.59;;;-4.71;57.45
64644;BME280;51056;50.330;7.914;2024-01-10T01:34:11;101901.56;;;-4.96;57.97
64644;BME280;51056;50.330;7.914;2024-01-10T01:37:14;101898.03;;;-5.01;58.60
64644;BME280;51056;50.330;7.914;2024-01-10T01:40:18;101903.72;;;-4.82;58.79
64644;BME280;51056;50.330;7.914;2024-01-10T01:43:25;101907.84;;;-4.86;59.01
64644;BME280;51056;50.330;7.914;2024-01-10T01:46:29;101901.84;;;-4.88;59.07
64644;BME280;51056;50.330;7.914;2024-01-10T01:49:32;101911.56;;;-5.02;59.66
64644;BME280;51056;50.330;7.914;2024-01-10T01:52:36;101896.88;;;-4.83;58.65
64644;BME280;51056;50.330;7.914;2024-01-10T01:55:41;101905.16;;;-4.91;59.11
64644;BME280;51056;50.330;7.914;2024-01-10T01:58:45;101892.94;;;-5.01;59.74
64644;BME280;51056;50.330;7.914;2024-01-10T02:01:51;101891.28;;;-4.99;59.46
64644;BME280;51056;50.330;7.914;2024-01-10T02:04:55;101891.56;;;-4.89;58.82
64644;BME280;51056;50.330;7.914;2024-01-10T02:07:58;101886.28;;;-4.96;59.21
64644;BME280;51056;50.330;7.914;2024-01-10T02:11:02;101890.81;;;-5.12;60.07
64644;BME280;51056;50.330;7.914;2024-01-10T02:14:06;101887.13;;;-4.95;59.43
64644;BME280;51056;50.330;7.914;2024-01-10T02:17:09;101886.13;;;-5.00;59.26
64644;BME280;51056;50.330;7.914;2024-01-10T02:20:14;101882.91;;;-4.95;58.48
64644;BME280;51056;50.330;7.914;2024-01-10T02:23:20;101873.41;;;-5.24;60.13
64644;BME280;51056;50.330;7.914;2024-01-10T02:26:23;101878.84;;;-5.15;60.12
64644;BME280;51056;50.330;7.914;2024-01-10T02:29:27;101870.88;;;-4.99;59.76
64644;BME280;51056;50.330;7.914;2024-01-10T02:32:30;101864.81;;;-5.02;59.33
64644;BME280;51056;50.330;7.914;2024-01-10T02:35:34;101868.56;;;-5.42;61.63
64644;BME280;51056;50.330;7.914;2024-01-10T02:38:37;101861.38;;;-5.28;60.34
64644;BME280;51056;50.330;7.914;2024-01-10T02:41:40;101861.69;;;-5.19;60.78
64644;BME280;51056;50.330;7.914;2024-01-10T02:44:44;101860.75;;;-5.23;60.26
64644;BME280;51056;50.330;7.914;2024-01-10T02:47:47;101857.25;;;-5.25;60.15
64644;BME280;51056;50.330;7.914;2024-01-10T02:50:50;101859.66;;;-5.29;60.21
64644;BME280;51056;50.330;7.914;2024-01-10T02:53:53;101862.13;;;-5.32;61.55
64644;BME280;51056;50.330;7.914;2024-01-10T02:56:57;101862.91;;;-5.33;61.56
64644;BME280;51056;50.330;7.914;2024-01-10T03:00:00;101871.16;;;-5.41;61.87
64644;BME280;51056;50.330;7.914;2024-01-10T03:03:04;101866.47;;;-5.54;61.95
64644;BME280;51056;50.330;7.914;2024-01-10T03:06:07;101863.47;;;-5.42;60.72
64644;BME280;51056;50.330;7.914;2024-01-10T03:09:10;101861.69;;;-5.19;61.11
64644;BME280;51056;50.330;7.914;2024-01-10T03:12:13;101852.50;;;-5.14;60.96
64644;BME280;51056;50.330;7.914;2024-01-10T03:15:17;101866.16;;;-5.13;60.78
64644;BME280;51056;50.330;7.914;2024-01-10T03:18:20;101862.69;;;-5.14;61.15
64644;BME280;51056;50.330;7.914;2024-01-10T03:21:23;101863.97;;;-5.27;61.50
64644;BME280;51056;50.330;7.914;2024-01-10T03:24:28;101861.09;;;-5.12;61.67
64644;BME280;51056;50.330;7.914;2024-01-10T03:27:32;101853.94;;;-5.22;61.66
64644;BME280;51056;50.330;7.914;2024-01-10T03:30:35;101847.16;;;-5.22;62.00
64644;BME280;51056;50.330;7.914;2024-01-10T03:33:39;101849.19;;;-5.11;61.73
64644;BME280;51056;50.330;7.914;2024-01-10T03:36:42;101848.56;;;-5.04;61.31
64644;BME280;51056;50.330;7.914;2024-01-10T03:39:45;101852.56;;;-5.12;61.87
64644;BME280;51056;50.330;7.914;2024-01-10T03:42:48;101845.88;;;-5.09;61.73
64644;BME280;51056;50.330;7.914;2024-01-10T03:45:52;101844.94;;;-5.11;61.06
64644;BME280;51056;50.330;7.914;2024-01-10T03:48:55;101841.09;;;-5.25;62.16
64644;BME280;51056;50.330;7.914;2024-01-10T03:51:58;101844.47;;;-5.26;62.08
64644;BME280;51056;50.330;7.914;2024-01-10T03:55:02;101846.41;;;-5.19;62.22
64644;BME280;51056;50.330;7.914;2024-01-10T03:58:05;101837.56;;;-5.03;61.36
64644;BME280;51056;50.330;7.914;2024-01-10T04:01:08;101838.16;;;-5.36;62.47
64644;BME280;51056;50.330;7.914;2024-01-10T04:04:11;101840.13;;;-5.29;62.09
64644;BME280;51056;50.330;7.914;2024-01-10T04:07:15;101843.88;;;-5.18;61.23
64644;BME280;51056;50.330;7.914;2024-01-10T04:10:18;101845.53;;;-5.20;61.88
64644;BME280;51056;50.330;7.914;2024-01-10T04:13:22;101850.44;;;-5.26;62.17
64644;BME280;51056;50.330;7.914;2024-01-10T04:16:25;101854.56;;;-5.29;62.32
64644;BME280;51056;50.330;7.914;2024-01-10T04:19:30;101862.00;;;-5.35;61.02
64644;BME280;51056;50.330;7.914;2024-01-10T04:22:33;101859.28;;;-5.40;62.41
64644;BME280;51056;50.330;7.914;2024-01-10T04:25:36;101857.28;;;-5.49;62.56
64644;BME280;51056;50.330;7.914;2024-01-10T04:28:40;101856.59;;;-5.45;63.00
64644;BME280;51056;50.330;7.914;2024-01-10T04:31:44;101858.53;;;-5.38;62.87
64644;BME280;51056;50.330;7.914;2024-01-10T04:34:48;101863.41;;;-5.44;63.21
64644;BME280;51056;50.330;7.914;2024-01-10T04:37:51;101861.28;;;-5.55;63.29
64644;BME280;51056;50.330;7.914;2024-01-10T04:40:54;101864.41;;;-5.64;63.11
64644;BME280;51056;50.330;7.914;2024-01-10T04:43:57;101853.81;;;-5.51;63.51
64644;BME280;51056;50.330;7.914;2024-01-10T04:47:01;101850.66;;;-5.44;62.45
64644;BME280;51056;50.330;7.914;2024-01-10T04:50:04;101847.41;;;-5.40;62.88
64644;BME280;51056;50.330;7.914;2024-01-10T04:53:07;101854.25;;;-5.39;63.18
64644;BME280;51056;50.330;7.914;2024-01-10T04:56:11;101846.56;;;-5.64;63.56
64644;BME280;51056;50.330;7.914;2024-01-10T04:59:14;101855.22;;;-5.59;63.68
64644;BME280;51056;50.330;7.914;2024-01-10T05:02:18;101850.03;;;-5.62;63.75
64644;BME280;51056;50.330;7.914;2024-01-10T05:05:21;101854.03;;;-5.45;63.10
64644;BME280;51056;50.330;7.914;2024-01-10T05:08:26;101851.03;;;-5.33;63.02
64644;BME280;51056;50.330;7.914;2024-01-10T05:11:30;101844.13;;;-5.61;63.20
64644;BME280;51056;50.330;7.914;2024-01-10T05:14:33;101846.13;;;-5.76;63.97
64644;BME280;51056;50.330;7.914;2024-01-10T05:17:36;101838.31;;;-5.81;64.69
64644;BME280;51056;50.330;7.914;2024-01-10T05:20:40;101840.03;;;-5.56;64.30
64644;BME280;51056;50.330;7.914;2024-01-10T05:23:43;101839.22;;;-5.80;65.55
64644;BME280;51056;50.330;7.914;2024-01-10T05:26:46;101833.00;;;-5.87;65.61
64644;BME280;51056;50.330;7.914;2024-01-10T05:29:49;101841.88;;;-5.77;64.80
64644;BME280;51056;50.330;7.914;2024-01-10T05:32:52;101832.41;;;-5.56;64.74
64644;BME280;51056;50.330;7.914;2024-01-10T05:35:56;101836.84;;;-5.74;65.46
64644;BME280;51056;50.330;7.914;2024-01-10T05:39:01;101837.66;;;-5.75;65.18
64644;BME280;51056;50.330;7.914;2024-01-10T05:42:04;101838.88;;;-5.90;65.01
64644;BME280;51056;50.330;7.914;2024-01-10T05:45:08;101843.09;;;-5.66;65.19
64644;BME280;51056;50.330;7.914;2024-01-10T05:48:11;101845.16;;;-5.56;65.03
64644;BME280;51056;50.330;7.914;2024-01-10T05:51:15;101848.84;;;-5.48;64.78
64644;BME280;51056;50.330;7.914;2024-01-10T05:54:18;101850.56;;;-5.47;64.32
64644;BME280;51056;50.330;7.914;2024-01-10T05:57:22;101851.38;;;-5.48;64.44
64644;BME280;51056;50.330;7.914;2024-01-10T06:00:25;101848.88;;;-5.46;65.14
64644;BME280;51056;50.330;7.914;2024-01-10T06:03:28;101851.31;;;-5.49;65.07
64644;BME280;51056;50.330;7.914;2024-01-10T06:06:32;101847.81;;;-5.53;65.48
64644;BME280;51056;50.330;7.914;2024-01-10T06:09:35;101852.50;;;-5.40;65.07
64644;BME280;51056;50.330;7.914;2024-01-10T06:12:39;101853.28;;;-5.42;65.10
64644;BME280;51056;50.330;7.914;2024-01-10T06:15:42;101851.38;;;-5.48;65.24
64644;BME280;51056;50.330;7.914;2024-01-10T06:18:45;101845.91;;;-5.33;64.69
64644;BME280;51056;50.330;7.914;2024-01-10T06:21:49;101846.72;;;-5.35;64.01
64644;BME280;51056;50.330;7.914;2024-01-10T06:24:54;101846.13;;;-5.27;63.92
64644;BME280;51056;50.330;7.914;2024-01-10T06:28:02;101843.00;;;-5.20;63.24
64644;BME280;51056;50.330;7.914;2024-01-10T06:31:07;101837.50;;;-5.30;64.35
64644;BME280;51056;50.330;7.914;2024-01-10T06:34:13;101836.22;;;-5.19;63.92
64644;BME280;51056;50.330;7.914;2024-01-10T06:37:21;101841.84;;;-5.28;63.90
64644;BME280;51056;50.330;7.914;2024-01-10T06:40:26;101852.09;;;-5.52;65.11
64644;BME280;51056;50.330;7.914;2024-01-10T06:43:33;101840.47;;;-5.44;65.06
64644;BME280;51056;50.330;7.914;2024-01-10T06:46:38;101845.34;;;-5.26;64.16
64644;BME280;51056;50.330;7.914;2024-01-10T06:49:41;101840.44;;;-5.20;64.04
64644;BME280;51056;50.330;7.914;2024-01-10T06:52:44;101840.25;;;-5.26;64.16
64644;BME280;51056;50.330;7.914;2024-01-10T06:55:48;101844.25;;;-5.32;64.49
64644;BME280;51056;50.330;7.914;2024-01-10T06:58:51;101847.13;;;-5.23;64.39
64644;BME280;51056;50.330;7.914;2024-01-10T07:01:54;101842.03;;;-5.23;63.88
64644;BME280;51056;50.330;7.914;2024-01-10T07:05:00;101841.41;;;-5.16;64.21
64644;BME280;51056;50.330;7.914;2024-01-10T07:08:05;101850.88;;;-5.12;64.12
64644;BME280;51056;50.330;7.914;2024-01-10T07:11:09;101844.75;;;-5.17;64.18
64644;BME280;51056;50.330;7.914;2024-01-10T07:14:13;101851.91;;;-5.07;64.40
64644;BME280;51056;50.330;7.914;2024-01-10T07:17:16;101853.78;;;-5.01;64.72
64644;BME280;51056;50.330;7.914;2024-01-10T07:20:19;101856.19;;;-5.06;65.09
64644;BME280;51056;50.330;7.914;2024-01-10T07:23:23;101858.97;;;-5.24;65.59
64644;BME280;51056;50.330;7.914;2024-01-10T07:26:26;101860.06;;;-5.17;65.58
64644;BME280;51056;50.330;7.914;2024-01-10T07:29:30;101869.97;;;-5.26;65.52
64644;BME280;51056;50.330;7.914;2024-01-10T07:32:33;101855.97;;;-5.12;65.61
64644;BME280;51056;50.330;7.914;2024-01-10T07:35:37;101862.91;;;-5.08;64.71
64644;BME280;51056;50.330;7.914;2024-01-10T07:38:41;101864.16;;;-4.97;64.93
64644;BME280;51056;50.330;7.914;2024-01-10T07:41:45;101868.47;;;-4.94;65.47
64644;BME280;51056;50.330;7.914;2024-01-10T07:44:48;101870.44;;;-4.85;65.25
64644;BME280;51056;50.330;7.914;2024-01-10T07:47:51;101878.47;;;-4.75;64.85
64644;BME280;51056;50.330;7.914;2024-01-10T07:50:55;101883.88;;;-4.65;64.27
64644;BME280;51056;50.330;7.914;2024-01-10T07:53:59;101885.25;;;-4.75;64.45
64644;BME280;51056;50.330;7.914;2024-01-10T07:57:04;101885.34;;;-4.72;63.79
64644;BME280;51056;50.330;7.914;2024-01-10T08:00:11;101883.91;;;-4.64;64.07
64644;BME280;51056;50.330;7.914;2024-01-10T08:03:18;101884.63;;;-4.68;62.46
64644;BME280;51056;50.330;7.914;2024-01-10T08:06:30;101878.84;;;-4.62;63.25
64644;BME280;51056;50.330;7.914;2024-01-10T08:09:34;101895.13;;;-4.59;63.14
64644;BME280;51056;50.330;7.914;2024-01-10T08:12:39;101891.88;;;-4.53;61.76
64644;BME280;51056;50.330;7.914;2024-01-10T08:15:45;101892.03;;;-4.49;61.62
64644;BME280;51056;50.330;7.914;2024-01-10T08:18:48;101898.13;;;-4.44;60.85
64644;BME280;51056;50.330;7.914;2024-01-10T08:21:52;101891.78;;;-4.29;61.05
64644;BME280;51056;50.330;7.914;2024-01-10T08:24:56;101892.41;;;-4.36;60.33
64644;BME280;51056;50.330;7.914;2024-01-10T08:27:59;101891.88;;;-4.26;60.52
64644;BME280;51056;50.330;7.914;2024-01-10T08:31:02;101898.00;;;-4.21;60.36
64644;BME280;51056;50.330;7.914;2024-01-10T08:34:06;101890.41;;;-4.18;60.41
64644;BME280;51056;50.330;7.914;2024-01-10T08:37:09;101887.69;;;-4.24;59.89
64644;BME280;51056;50.330;7.914;2024-01-10T08:40:13;101888.59;;;-4.22;60.05
64644;BME280;51056;50.330;7.914;2024-01-10T08:43:18;101895.69;;;-4.12;59.29
64644;BME280;51056;50.330;7.914;2024-01-10T08:46:22;101893.78;;;-4.19;59.80
64644;BME280;51056;50.330;7.914;2024-01-10T08:49:25;101896.72;;;-4.07;58.92
64644;BME280;51056;50.330;7.914;2024-01-10T08:52:29;101900.97;;;-4.06;59.72
64644;BME280;51056;50.330;7.914;2024-01-10T08:55:33;101903.03;;;-3.94;59.63
64644;BME280;51056;50.330;7.914;2024-01-10T08:58:37;101902.22;;;-3.93;59.72
64644;BME280;51056;50.330;7.914;2024-01-10T09:01:41;101902.91;;;-3.99;59.10
64644;BME280;51056;50.330;7.914;2024-01-10T09:04:45;101908.28;;;-3.89;59.38
64644;BME280;51056;50.330;7.914;2024-01-10T09:07:49;101907.38;;;-3.91;58.67
64644;BME280;51056;50.330;7.914;2024-01-10T09:10:53;101918.75;;;-4.10;59.30
64644;BME280;51056;50.330;7.914;2024-01-10T09:13:56;101918.34;;;-3.95;59.06
64644;BME280;51056;50.330;7.914;2024-01-10T09:17:00;101916.22;;;-4.09;58.28
64644;BME280;51056;50.330;7.914;2024-01-10T09:20:06;101912.66;;;-3.85;59.02
64644;BME280;51056;50.330;7.914;2024-01-10T09:23:10;101920.16;;;-3.91;58.75
64644;BME280;51056;50.330;7.914;2024-01-10T09:26:14;101920.34;;;-3.85;58.76
64644;BME280;51056;50.330;7.914;2024-01-10T09:29:17;101923.09;;;-3.78;58.03
64644;BME280;51056;50.330;7.914;2024-01-10T09:32:21;101928.91;;;-3.83;58.97
64644;BME280;51056;50.330;7.914;2024-01-10T09:35:25;101927.72;;;-3.66;58.16
64644;BME280;51056;50.330;7.914;2024-01-10T09:38:28;101926.03;;;-3.64;58.02
64644;BME280;51056;50.330;7.914;2024-01-10T09:41:37;101923.88;;;-3.50;57.79
64644;BME280;51056;50.330;7.914;2024-01-10T09:44:45;101917.84;;;-3.54;57.83
64644;BME280;51056;50.330;7.914;2024-01-10T09:47:52;101921.69;;;-3.36;56.72
64644;BME280;51056;50.330;7.914;2024-01-10T09:50:58;101921.94;;;-3.27;57.26
64644;BME280;51056;50.330;7.914;2024-01-10T09:54:03;101926.13;;;-3.31;57.41
64644;BME280;51056;50.330;7.914;2024-01-10T09:57:10;101922.28;;;-3.15;57.17
64644;BME280;51056;50.330;7.914;2024-01-10T10:00:17;101916.59;;;-3.36;57.22
64644;BME280;51056;50.330;7.914;2024-01-10T10:03:21;101909.28;;;-3.22;56.97
64644;BME280;51056;50.330;7.914;2024-01-10T10:06:28;101901.97;;;-3.09;56.82
64644;BME280;51056;50.330;7.914;2024-01-10T10:09:50;101896.44;;;-2.91;57.18
64644;BME280;51056;50.330;7.914;2024-01-10T10:13:25;101896.03;;;-2.73;56.24
64644;BME280;51056;50.330;7.914;2024-01-10T10:16:30;101894.00;;;-2.86;55.60
64644;BME280;51056;50.330;7.914;2024-01-10T10:19:35;101889.69;;;-2.87;56.14
64644;BME280;51056;50.330;7.914;2024-01-10T10:22:38;101900.78;;;-2.88;56.09
64644;BME280;51056;50.330;7.914;2024-01-10T10:25:46;101894.31;;;-2.74;56.05
64644;BME280;51056;50.330;7.914;2024-01-10T10:28:51;101892.56;;;-2.75;56.38
64644;BME280;51056;50.330;7.914;2024-01-10T10:31:58;101884.88;;;-2.75;56.27
64644;BME280;51056;50.330;7.914;2024-01-10T10:35:03;101882.38;;;-2.72;55.86
64644;BME280;51056;50.330;7.914;2024-01-10T10:38:10;101882.63;;;-2.63;55.78
64644;BME280;51056;50.330;7.914;2024-01-10T10:41:15;101889.03;;;-2.80;56.03
64644;BME280;51056;50.330;7.914;2024-01-10T10:44:23;101883.16;;;-2.76;55.30
64644;BME280;51056;50.330;7.914;2024-01-10T10:47:38;101880.06;;;-2.63;55.46
64644;BME280;51056;50.330;7.914;2024-01-10T10:50:59;101883.44;;;-2.64;55.33
64644;BME280;51056;50.330;7.914;2024-01-10T10:54:07;101879.44;;;-2.52;55.63
64644;BME280;51056;50.330;7.914;2024-01-10T10:57:11;101874.69;;;-2.73;55.77
64644;BME280;51056;50.330;7.914;2024-01-10T11:00:20;101891.59;;;-2.80;56.18
64644;BME280;51056;50.330;7.914;2024-01-10T11:03:37;101892.84;;;-2.63;56.23
64644;BME280;51056;50.330;7.914;2024-01-10T11:06:56;101886.81;;;-2.66;55.84
64644;BME280;51056;50.330;7.914;2024-01-10T11:10:05;101883.25;;;-2.71;55.31
64644;BME280;51056;50.330;7.914;2024-01-10T11:23:39;101882.06;;;-2.49;55.69
64644;BME280;51056;50.330;7.914;2024-01-10T11:26:45;101884.59;;;-2.51;55.89
64644;BME280;51056;50.330;7.914;2024-01-10T11:30:06;101875.06;;;-2.57;55.60
64644;BME280;51056;50.330;7.914;2024-01-10T11:33:23;101862.66;;;-2.40;55.35
64644;BME280;51056;50.330;7.914;2024-01-10T11:36:28;101870.16;;;-2.47;54.91
64644;BME280;51056;50.330;7.914;2024-01-10T11:39:35;101864.34;;;-2.40;55.70
64644;BME280;51056;50.330;7.914;2024-01-10T11:42:42;101867.81;;;-2.38;55.09
64644;BME280;51056;50.330;7.914;2024-01-10T11:45:56;101871.41;;;-2.30;55.36
64644;BME280;51056;50.330;7.914;2024-01-10T11:49:00;101867.91;;;-2.34;55.82
64644;BME280;51056;50.330;7.914;2024-01-10T11:52:03;101856.09;;;-2.27;55.87
64644;BME280;51056;50.330;7.914;2024-01-10T11:55:08;101845.47;;;-2.04;54.92
64644;BME280;51056;50.330;7.914;2024-01-10T11:58:12;101841.44;;;-1.93;54.40
64644;BME280;51056;50.330;7.914;2024-01-10T12:01:16;101842.16;;;-1.99;54.52
64644;BME280;51056;50.330;7.914;2024-01-10T12:04:20;101843.53;;;-2.16;55.35
64644;BME280;51056;50.330;7.914;2024-01-10T12:07:25;101838.69;;;-2.02;55.17
64644;BME280;51056;50.330;7.914;2024-01-10T12:10:28;101829.22;;;-2.06;55.30
64644;BME280;51056;50.330;7.914;2024-01-10T12:13:33;101827.69;;;-1.97;55.61
64644;BME280;51056;50.330;7.914;2024-01-10T12:16:37;101835.59;;;-1.86;55.43
64644;BME280;51056;50.330;7.914;2024-01-10T12:19:40;101826.47;;;-1.72;54.81
64644;BME280;51056;50.330;7.914;2024-01-10T12:22:50;101827.16;;;-1.79;54.22
64644;BME280;51056;50.330;7.914;2024-01-10T12:25:56;101827.16;;;-1.80;54.25
64644;BME280;51056;50.330;7.914;2024-01-10T12:28:59;101824.84;;;-1.67;53.68
64644;BME280;51056;50.330;7.914;2024-01-10T12:32:03;101826.72;;;-1.59;54.15
64644;BME280;51056;50.330;7.914;2024-01-10T12:35:07;101828.09;;;-1.30;53.48
64644;BME280;51056;50.330;7.914;2024-01-10T12:38:11;101834.00;;;-1.34;53.83
64644;BME280;51056;50.330;7.914;2024-01-10T12:41:15;101827.41;;;-1.20;53.32
64644;BME280;51056;50.330;7.914;2024-01-10T12:44:19;101825.78;;;-1.14;53.66
64644;BME280;51056;50.330;7.914;2024-01-10T12:47:24;101829.44;;;-1.00;52.67
64644;BME280;51056;50.330;7.914;2024-01-10T12:50:27;101831.78;;;-1.12;52.75
64644;BME280;51056;50.330;7.914;2024-01-10T12:53:36;101830.22;;;-1.04;53.30
64644;BME280;51056;50.330;7.914;2024-01-10T12:56:40;101836.47;;;-0.88;52.85
64644;BME280;51056;50.330;7.914;2024-01-10T12:59:43;101829.56;;;-0.92;52.55
64644;BME280;51056;50.330;7.914;2024-01-10T13:02:48;101827.09;;;-0.83;52.57
64644;BME280;51056;50.330;7.914;2024-01-10T13:05:51;101819.00;;;-1.09;52.90
64644;BME280;51056;50.330;7.914;2024-01-10T13:08:54;101814.31;;;-0.82;52.39
64644;BME280;51056;50.330;7.914;2024-01-10T13:11:58;101813.06;;;-1.07;53.15
64644;BME280;51056;50.330;7.914;2024-01-10T13:15:01;101811.41;;;-1.03;53.19
64644;BME280;51056;50.330;7.914;2024-01-10T13:18:05;101805.59;;;-0.91;52.65
64644;BME280;51056;50.330;7.914;2024-01-10T13:21:09;101802.22;;;-0.89;52.22
64644;BME280;51056;50.330;7.914;2024-01-10T13:24:13;101805.31;;;-1.11;52.16
64644;BME280;51056;50.330;7.914;2024-01-10T13:27:16;101800.41;;;-0.95;52.73
64644;BME280;51056;50.330;7.914;2024-01-10T13:30:20;101816.63;;;-0.99;52.40
64644;BME280;51056;50.330;7.914;2024-01-10T13:33:23;101815.41;;;-1.21;53.70
64644;BME280;51056;50.330;7.914;2024-01-10T13:36:26;101816.00;;;-1.35;53.79
64644;BME280;51056;50.330;7.914;2024-01-10T13:39:29;101819.56;;;-1.27;53.41
64644;BME280;51056;50.330;7.914;2024-01-10T13:42:33;101814.50;;;-1.24;53.77
64644;BME280;51056;50.330;7.914;2024-01-10T13:45:36;101813.72;;;-1.20;53.59
64644;BME280;51056;50.330;7.914;2024-01-10T13:48:42;101807.72;;;-1.19;54.51
64644;BME280;51056;50.330;7.914;2024-01-10T13:51:45;101807.00;;;-1.10;53.93
64644;BME280;51056;50.330;7.914;2024-01-10T13:54:48;101807.00;;;-1.10;53.09
64644;BME280;51056;50.330;7.914;2024-01-10T13:57:52;101806.06;;;-1.17;53.48
64644;BME280;51056;50.330;7.914;2024-01-10T14:00:55;101806.09;;;-1.14;52.96
64644;BME280;51056;50.330;7.914;2024-01-10T14:03:58;101796.66;;;-1.15;53.21
64644;BME280;51056;50.330;7.914;2024-01-10T14:07:01;101803.44;;;-1.20;53.66
64644;BME280;51056;50.330;7.914;2024-01-10T14:10:07;101791.47;;;-1.20;53.64
64644;BME280;51056;50.330;7.914;2024-01-10T14:13:10;101800.13;;;-1.14;53.32
64644;BME280;51056;50.330;7.914;2024-01-10T14:16:15;101803.50;;;-1.15;53.61
64644;BME280;51056;50.330;7.914;2024-01-10T14:19:18;101804.34;;;-1.18;53.51
64644;BME280;51056;50.330;7.914;2024-01-10T14:22:21;101801.72;;;-1.20;53.76
64644;BME280;51056;50.330;7.914;2024-01-10T14:25:27;101810.34;;;-1.18;53.27
64644;BME280;51056;50.330;7.914;2024-01-10T14:28:31;101811.09;;;-1.22;53.95
64644;BME280;51056;50.330;7.914;2024-01-10T14:31:36;101810.34;;;-1.18;53.61
64644;BME280;51056;50.330;7.914;2024-01-10T14:34:39;101809.38;;;-1.24;53.79
64644;BME280;51056;50.330;7.914;2024-01-10T14:37:43;101809.31;;;-1.27;54.09
64644;BME280;51056;50.330;7.914;2024-01-10T14:40:49;101812.41;;;-1.45;54.71
64644;BME280;51056;50.330;7.914;2024-01-10T14:43:54;101807.16;;;-1.53;55.07
64644;BME280;51056;50.330;7.914;2024-01-10T14:47:00;101815.84;;;-1.45;54.52
64644;BME280;51056;50.330;7.914;2024-01-10T14:50:03;101810.88;;;-1.37;54.94
64644;BME280;51056;50.330;7.914;2024-01-10T14:53:07;101815.94;;;-1.38;55.39
64644;BME280;51056;50.330;7.914;2024-01-10T14:56:11;101819.31;;;-1.41;55.60
64644;BME280;51056;50.330;7.914;2024-01-10T14:59:15;101820.16;;;-1.42;55.86
64644;BME280;51056;50.330;7.914;2024-01-10T15:02:18;101820.97;;;-1.46;55.62
64644;BME280;51056;50.330;7.914;2024-01-10T15:05:21;101833.66;;;-1.52;57.00
64644;BME280;51056;50.330;7.914;2024-01-10T15:08:25;101829.41;;;-1.50;57.10
64644;BME280;51056;50.330;7.914;2024-01-10T15:11:29;101838.56;;;-1.65;58.06
64644;BME280;51056;50.330;7.914;2024-01-10T15:14:34;101852.97;;;-1.71;58.25
64644;BME280;51056;50.330;7.914;2024-01-10T15:17:40;101858.22;;;-1.65;58.76
64644;BME280;51056;50.330;7.914;2024-01-10T15:20:43;101847.00;;;-1.72;58.94
64644;BME280;51056;50.330;7.914;2024-01-10T15:23:47;101852.13;;;-1.72;58.80
64644;BME280;51056;50.330;7.914;2024-01-10T15:26:50;101858.91;;;-1.74;58.71
64644;BME280;51056;50.330;7.914;2024-01-10T15:29:55;101867.44;;;-1.75;59.55
64644;BME280;51056;50.330;7.914;2024-01-10T15:32:58;101872.50;;;-1.78;59.75
64644;BME280;51056;50.330;7.914;2024-01-10T15:36:02;101868.72;;;-1.95;59.99
64644;BME280;51056;50.330;7.914;2024-01-10T15:39:09;101867.78;;;-2.00;60.92
64644;BME280;51056;50.330;7.914;2024-01-10T15:42:16;101867.00;;;-1.96;61.21
64644;BME280;51056;50.330;7.914;2024-01-10T15:45:20;101865.91;;;-2.07;62.04
64644;BME280;51056;50.330;7.914;2024-01-10T15:48:24;101866.88;;;-2.02;61.93
64644;BME280;51056;50.330;7.914;2024-01-10T15:51:28;101871.03;;;-2.07;61.99
64644;BME280;51056;50.330;7.914;2024-01-10T15:54:31;101875.22;;;-2.11;62.37
64644;BME280;51056;50.330;7.914;2024-01-10T15:57:40;101878.19;;;-2.32;63.14
64644;BME280;51056;50.330;7.914;2024-01-10T16:00:43;101887.44;;;-2.39;63.13
64644;BME280;51056;50.330;7.914;2024-01-10T16:03:46;101892.53;;;-2.40;63.49
64644;BME280;51056;50.330;7.914;2024-01-10T16:06:50;101899.34;;;-2.41;63.48
64644;BME280;51056;50.330;7.914;2024-01-10T16:09:53;101898.34;;;-2.47;63.82
64644;BME280;51056;50.330;7.914;2024-01-10T16:12:57;101896.41;;;-2.58;64.19
64644;BME280;51056;50.330;7.914;2024-01-10T16:16:00;101909.97;;;-2.62;64.52